Time;durP1;ratioP1;P1;durP2;ratioP2;P2;SDS_P1;SDS_P2;PMS_P1;PMS_P2;Temp;Humidity;BMP_temperature;BMP_pressure;BME280_temperature;BME280_humidity;BME280_pressure;Samples;Min_cycle;Max_cycle;Signal;HPM_P1;HPM_P2
2023/05/06 00:00:26;;;;;;;17.23;13.07;;;16.90;91.10;;;;;;5116011;27;20631;-63
2023/05/06 00:02:54;;;;;;;15.10;12.97;;;16.80;91.10;;;;;;5112883;27;20210;-63
2023/05/06 00:05:21;;;;;;;18.03;13.83;;;16.80;91.20;;;;;;5112770;28;20200;-63
2023/05/06 00:07:48;;;;;;;17.63;12.60;;;16.80;91.30;;;;;;5125248;27;20302;-64
2023/05/06 00:10:15;;;;;;;19.43;15.60;;;16.80;91.30;;;;;;5121026;27;20552;-63
2023/05/06 00:12:42;;;;;;;16.97;14.77;;;16.70;91.30;;;;;;5120014;27;20602;-63
2023/05/06 00:15:10;;;;;;;19.17;15.03;;;16.70;91.30;;;;;;5127019;27;20286;-63
2023/05/06 00:17:37;;;;;;;16.37;13.97;;;16.70;91.30;;;;;;5120600;27;20603;-63
2023/05/06 00:20:05;;;;;;;21.53;14.10;;;16.60;91.40;;;;;;5124847;27;20527;-62
2023/05/06 00:22:33;;;;;;;16.33;14.40;;;16.60;91.50;;;;;;5123327;27;20290;-63
2023/05/06 00:25:00;;;;;;;21.40;14.47;;;16.60;91.50;;;;;;5123633;27;20293;-62
2023/05/06 00:27:27;;;;;;;19.97;15.50;;;16.50;91.50;;;;;;5123871;27;20317;-62
2023/05/06 00:29:54;;;;;;;19.97;14.00;;;16.50;91.60;;;;;;5122885;27;20490;-63
2023/05/06 00:32:21;;;;;;;16.00;14.30;;;16.50;91.70;;;;;;5126973;27;20290;-63
2023/05/06 00:34:48;;;;;;;18.30;14.30;;;16.50;91.90;;;;;;5105883;28;20208;-63
2023/05/06 00:37:15;;;;;;;21.00;15.17;;;16.40;91.90;;;;;;5121231;27;20200;-63
2023/05/06 00:39:42;;;;;;;16.97;12.90;;;16.50;92.00;;;;;;5119495;27;20211;-63
2023/05/06 00:42:09;;;;;;;15.60;11.83;;;16.40;92.00;;;;;;5120313;27;20578;-63
2023/05/06 00:44:36;;;;;;;12.50;11.20;;;16.40;91.90;;;;;;5120086;27;20196;-63
2023/05/06 00:47:03;;;;;;;12.03;10.93;;;16.40;91.90;;;;;;5120402;27;20320;-63
2023/05/06 00:49:31;;;;;;;15.93;12.83;;;16.40;91.80;;;;;;5114123;27;20223;-63
2023/05/06 00:51:58;;;;;;;15.60;13.43;;;16.40;91.80;;;;;;5117494;27;20199;-63
2023/05/06 00:54:26;;;;;;;19.47;14.93;;;16.30;91.90;;;;;;5116894;27;20192;-62
2023/05/06 00:56:53;;;;;;;17.37;15.37;;;16.40;92.00;;;;;;5115457;27;20205;-63
2023/05/06 00:59:22;;;;;;;18.40;15.97;;;16.30;92.00;;;;;;5124172;27;20200;-63
2023/05/06 01:01:51;;;;;;;18.37;15.63;;;16.40;92.10;;;;;;5117762;27;20221;-63
2023/05/06 01:04:18;;;;;;;23.87;14.73;;;16.40;92.20;;;;;;5119623;27;20616;-62
2023/05/06 01:06:57;;;;;;;17.67;14.97;;;16.30;92.10;;;;;;5122129;27;20209;-62
2023/05/06 01:09:38;;;;;;;19.70;16.83;;;16.30;92.20;;;;;;5119038;27;20217;-62
2023/05/06 01:12:15;;;;;;;18.87;16.10;;;16.30;92.30;;;;;;5114661;27;20191;-63
2023/05/06 01:15:05;;;;;;;22.30;16.27;;;16.40;92.30;;;;;;5104367;28;20273;-63
2023/05/06 01:17:35;;;;;;;19.57;17.13;;;16.30;92.30;;;;;;5123682;27;20203;-62
2023/05/06 01:20:05;;;;;;;19.93;16.57;;;16.30;92.30;;;;;;5119714;27;20560;-62
2023/05/06 01:22:35;;;;;;;21.23;17.10;;;16.30;92.40;;;;;;5117413;27;20190;-62
2023/05/06 01:25:02;;;;;;;19.67;17.57;;;16.30;92.50;;;;;;5118857;27;20190;-63
2023/05/06 01:27:29;;;;;;;21.93;16.80;;;16.30;92.50;;;;;;5118181;27;20192;-62
2023/05/06 01:29:58;;;;;;;22.67;17.73;;;16.30;92.80;;;;;;5114518;27;20719;-63
2023/05/06 01:32:33;;;;;;;22.10;17.07;;;16.20;92.60;;;;;;5117054;27;20568;-62
2023/05/06 01:35:05;;;;;;;19.20;15.23;;;16.20;92.70;;;;;;5120432;27;20664;-63
2023/05/06 01:38:06;;;;;;;16.70;14.90;;;16.10;92.70;;;;;;5103224;27;20524;-62
2023/05/06 01:40:34;;;;;;;19.53;15.53;;;16.10;92.70;;;;;;5113049;27;20206;-63
2023/05/06 01:43:04;;;;;;;16.77;14.67;;;16.10;92.70;;;;;;5119257;27;20280;-62
2023/05/06 01:45:35;;;;;;;18.23;14.23;;;16.10;92.70;;;;;;5114192;27;20251;-62
2023/05/06 01:48:03;;;;;;;20.20;15.73;;;16.00;92.70;;;;;;5114382;27;20220;-62
2023/05/06 01:50:31;;;;;;;16.43;13.77;;;16.00;92.70;;;;;;5118656;27;20239;-62
2023/05/06 01:53:01;;;;;;;18.10;13.23;;;16.00;92.80;;;;;;5124007;27;20276;-63
2023/05/06 01:55:28;;;;;;;19.83;16.37;;;16.00;92.80;;;;;;5119407;27;20202;-62
2023/05/06 01:57:55;;;;;;;19.67;15.27;;;15.90;92.80;;;;;;5116573;27;20536;-62
2023/05/06 02:00:25;;;;;;;18.23;16.27;;;15.90;92.80;;;;;;5123409;27;20200;-63
2023/05/06 02:02:52;;;;;;;18.00;16.03;;;15.90;92.90;;;;;;5120316;27;20641;-62
2023/05/06 02:05:19;;;;;;;18.57;16.53;;;15.80;92.90;;;;;;5117461;27;20541;-62
2023/05/06 02:07:50;;;;;;;17.33;14.80;;;15.80;93.00;;;;;;5121988;27;20219;-62
2023/05/06 02:10:18;;;;;;;15.10;12.47;;;15.80;93.00;;;;;;5115941;27;20599;-62
2023/05/06 02:12:50;;;;;;;19.73;16.20;;;15.80;93.00;;;;;;5115859;27;20209;-62
2023/05/06 02:15:18;;;;;;;20.67;16.30;;;15.70;92.90;;;;;;5111815;27;20316;-62
2023/05/06 02:17:45;;;;;;;19.30;16.77;;;15.70;92.80;;;;;;5102594;27;20189;-62
2023/05/06 02:20:12;;;;;;;19.90;17.13;;;15.70;92.90;;;;;;5110278;27;20192;-62
2023/05/06 02:22:39;;;;;;;18.80;16.57;;;15.70;92.90;;;;;;5110894;27;20674;-62
2023/05/06 02:25:07;;;;;;;22.80;18.07;;;15.60;93.00;;;;;;5120084;27;20200;-62
2023/05/06 02:27:34;;;;;;;14.70;12.40;;;15.60;93.20;;;;;;5118837;27;20570;-63
2023/05/06 02:30:02;;;;;;;19.50;15.07;;;15.60;93.30;;;;;;5114422;27;20210;-62
2023/05/06 02:32:29;;;;;;;17.67;15.50;;;15.60;93.40;;;;;;5116690;27;20276;-62
2023/05/06 02:34:56;;;;;;;16.23;13.77;;;15.60;93.40;;;;;;5119477;27;20265;-62
2023/05/06 02:37:23;;;;;;;17.60;14.50;;;15.60;93.50;;;;;;5114736;27;20185;-62
2023/05/06 02:39:50;;;;;;;15.13;13.53;;;15.60;93.50;;;;;;5119677;27;20620;-62
2023/05/06 02:42:17;;;;;;;16.27;14.53;;;15.60;93.50;;;;;;5109622;27;20199;-62
2023/05/06 02:44:44;;;;;;;19.03;13.83;;;15.50;93.50;;;;;;5112219;27;20204;-62
2023/05/06 02:47:12;;;;;;;17.43;14.90;;;15.50;93.50;;;;;;5115500;27;20541;-62
2023/05/06 02:49:38;;;;;;;15.23;13.70;;;15.50;93.40;;;;;;5104768;28;20251;-62
2023/05/06 02:52:05;;;;;;;14.87;13.23;;;15.50;93.40;;;;;;5115145;27;20196;-62
2023/05/06 02:54:32;;;;;;;18.47;15.37;;;15.50;93.40;;;;;;5120747;27;20208;-62
2023/05/06 02:57:00;;;;;;;17.97;14.17;;;15.50;93.50;;;;;;5128492;27;20186;-62
2023/05/06 02:59:27;;;;;;;17.80;14.03;;;15.40;93.50;;;;;;5118263;27;20549;-62
2023/05/06 03:01:54;;;;;;;12.93;11.63;;;15.40;93.50;;;;;;5118713;27;20210;-62
2023/05/06 03:04:21;;;;;;;19.07;13.27;;;15.40;93.50;;;;;;5121563;27;20211;-62
2023/05/06 03:06:48;;;;;;;20.57;15.00;;;15.40;93.40;;;;;;5117856;27;20588;-62
2023/05/06 03:09:15;;;;;;;14.83;13.20;;;15.40;93.40;;;;;;5110414;27;20212;-62
2023/05/06 03:11:42;;;;;;;17.97;14.03;;;15.40;93.40;;;;;;5117983;27;20188;-62
2023/05/06 03:14:09;;;;;;;16.73;14.70;;;15.40;93.50;;;;;;5115765;28;20196;-62
2023/05/06 03:16:36;;;;;;;21.73;17.30;;;15.30;93.60;;;;;;5121096;27;20250;-62
2023/05/06 03:19:03;;;;;;;18.40;16.13;;;15.30;93.70;;;;;;5117412;28;20609;-62
2023/05/06 03:21:32;;;;;;;18.23;15.23;;;15.30;93.70;;;;;;5104700;28;20538;-62
2023/05/06 03:23:59;;;;;;;20.20;16.20;;;15.30;93.80;;;;;;5102824;28;20204;-62
2023/05/06 03:26:28;;;;;;;16.90;14.37;;;15.30;93.80;;;;;;5105450;28;20621;-62
2023/05/06 03:28:55;;;;;;;21.70;16.77;;;15.30;93.80;;;;;;5106973;28;20220;-62
2023/05/06 03:31:23;;;;;;;18.30;15.40;;;15.20;93.80;;;;;;5111872;28;20199;-62
2023/05/06 03:33:51;;;;;;;17.43;14.70;;;15.20;93.90;;;;;;5120813;28;20507;-63
2023/05/06 03:36:22;;;;;;;19.27;15.03;;;15.20;94.30;;;;;;5112267;28;20240;-62
2023/05/06 03:38:51;;;;;;;14.97;13.40;;;15.20;94.10;;;;;;5103492;28;20214;-62
2023/05/06 03:41:18;;;;;;;14.73;12.97;;;15.20;94.10;;;;;;5110258;28;20211;-62
2023/05/06 03:43:45;;;;;;;17.67;12.17;;;15.10;94.10;;;;;;5109069;28;20206;-62
2023/05/06 03:46:15;;;;;;;15.33;11.90;;;15.10;93.80;;;;;;5112487;28;20236;-62
2023/05/06 03:48:42;;;;;;;13.43;12.13;;;15.10;93.50;;;;;;5103140;28;20213;-62
2023/05/06 03:51:13;;;;;;;14.77;13.13;;;15.10;93.60;;;;;;5114799;28;20229;-62
2023/05/06 03:53:40;;;;;;;18.27;14.47;;;15.00;93.60;;;;;;5110089;28;20308;-62
2023/05/06 03:56:07;;;;;;;19.50;14.83;;;15.00;93.70;;;;;;5116829;28;20197;-63
2023/05/06 03:58:36;;;;;;;18.37;15.37;;;15.00;93.90;;;;;;5120738;28;20203;-63
2023/05/06 04:01:05;;;;;;;16.10;14.40;;;15.00;94.10;;;;;;5115717;28;20529;-63
2023/05/06 04:03:32;;;;;;;17.17;14.07;;;15.00;94.50;;;;;;5111034;28;20237;-63
2023/05/06 04:06:00;;;;;;;15.17;12.47;;;15.00;94.30;;;;;;5115429;28;20208;-63
2023/05/06 04:08:27;;;;;;;15.03;12.07;;;15.00;94.30;;;;;;5112963;28;20226;-62
2023/05/06 04:10:54;;;;;;;16.57;13.97;;;15.00;94.30;;;;;;5120277;28;20291;-63
2023/05/06 04:13:26;;;;;;;18.57;14.13;;;15.00;94.30;;;;;;5114453;28;20201;-63
2023/05/06 04:15:57;;;;;;;20.23;15.50;;;15.00;94.30;;;;;;5115667;28;20207;-63
2023/05/06 04:18:31;;;;;;;16.27;13.90;;;15.10;94.30;;;;;;5114122;28;20217;-63
2023/05/06 04:21:03;;;;;;;16.90;13.93;;;15.10;94.30;;;;;;5112005;28;20202;-63
2023/05/06 04:23:32;;;;;;;15.97;12.87;;;15.10;94.40;;;;;;5128965;27;20553;-63
2023/05/06 04:26:00;;;;;;;15.33;13.47;;;15.10;94.40;;;;;;5111985;28;20198;-63
2023/05/06 04:28:29;;;;;;;16.03;13.03;;;15.20;94.50;;;;;;5118280;28;20209;-62
2023/05/06 04:30:56;;;;;;;19.50;14.90;;;15.20;94.50;;;;;;5108246;28;20201;-63
2023/05/06 04:33:32;;;;;;;17.40;13.07;;;15.20;94.40;;;;;;5115594;28;20635;-63
2023/05/06 04:36:02;;;;;;;21.87;15.30;;;15.20;94.30;;;;;;5116666;28;20605;-63
2023/05/06 04:38:31;;;;;;;13.47;12.07;;;15.20;94.30;;;;;;5113706;27;20652;-63
2023/05/06 04:40:59;;;;;;;15.37;12.77;;;15.20;94.20;;;;;;5120427;27;20211;-63
2023/05/06 04:43:26;;;;;;;20.57;12.43;;;15.20;94.30;;;;;;5122697;27;20203;-63
2023/05/06 04:46:00;;;;;;;12.13;10.93;;;15.30;94.40;;;;;;5126976;27;20236;-63
2023/05/06 04:48:31;;;;;;;11.63;10.37;;;15.30;94.50;;;;;;5124484;27;20540;-63
2023/05/06 04:50:59;;;;;;;20.00;12.17;;;15.40;94.40;;;;;;5126173;27;20240;-63
2023/05/06 04:53:27;;;;;;;14.70;11.37;;;15.50;94.30;;;;;;5120234;27;20649;-63
2023/05/06 04:55:54;;;;;;;12.37;11.07;;;15.50;94.20;;;;;;5116863;27;20205;-63
2023/05/06 04:58:22;;;;;;;16.53;12.20;;;15.60;94.20;;;;;;5119698;27;20562;-64
2023/05/06 05:00:49;;;;;;;16.27;11.70;;;15.60;94.10;;;;;;5118507;27;20207;-63
2023/05/06 05:03:16;;;;;;;15.63;13.30;;;15.70;94.10;;;;;;5097277;27;20220;-63
2023/05/06 05:05:43;;;;;;;14.00;12.60;;;15.70;94.10;;;;;;5114197;27;20295;-63
2023/05/06 05:08:15;;;;;;;16.17;11.37;;;15.80;94.10;;;;;;5100208;28;20201;-63
2023/05/06 05:10:42;;;;;;;13.90;12.33;;;15.80;94.00;;;;;;5112088;27;20262;-63
2023/05/06 05:13:12;;;;;;;14.63;12.07;;;15.90;94.00;;;;;;5113620;27;20241;-63
2023/05/06 05:15:41;;;;;;;18.27;11.80;;;16.00;94.00;;;;;;5120160;27;20196;-63
2023/05/06 05:18:08;;;;;;;15.23;11.03;;;16.10;94.10;;;;;;5124476;27;20634;-63
2023/05/06 05:20:36;;;;;;;12.47;11.23;;;16.10;94.10;;;;;;5119757;27;20620;-63
2023/05/06 05:23:04;;;;;;;20.00;11.93;;;16.20;94.10;;;;;;5121756;27;20623;-63
2023/05/06 05:25:32;;;;;;;12.97;11.60;;;16.20;94.10;;;;;;5119769;27;20722;-63
2023/05/06 05:27:59;;;;;;;13.20;11.40;;;16.30;94.10;;;;;;5113400;27;20210;-63
2023/05/06 05:30:27;;;;;;;12.93;10.90;;;16.40;94.10;;;;;;5118417;27;20218;-63
2023/05/06 05:32:54;;;;;;;11.87;10.33;;;16.50;94.10;;;;;;5116370;27;20221;-63
2023/05/06 05:35:22;;;;;;;12.97;11.00;;;16.60;94.10;;;;;;5122952;27;20202;-63
2023/05/06 05:37:51;;;;;;;10.63;9.40;;;16.80;94.00;;;;;;5122296;27;20312;-63
2023/05/06 05:40:19;;;;;;;12.23;9.57;;;16.90;93.90;;;;;;5128474;27;20203;-63
2023/05/06 05:42:49;;;;;;;12.20;8.67;;;17.10;93.60;;;;;;5114635;27;20259;-63
2023/05/06 05:45:23;;;;;;;9.77;8.77;;;17.10;93.50;;;;;;5107139;27;20324;-63
2023/05/06 05:47:52;;;;;;;9.33;8.43;;;17.20;93.40;;;;;;5128975;27;20259;-64
2023/05/06 05:50:20;;;;;;;10.90;9.80;;;17.30;93.30;;;;;;5116104;27;20278;-63
2023/05/06 05:52:48;;;;;;;9.40;8.50;;;17.40;93.10;;;;;;5121551;27;20687;-63
2023/05/06 05:55:16;;;;;;;9.27;8.47;;;17.40;93.00;;;;;;5114862;27;20643;-63
2023/05/06 05:57:45;;;;;;;9.13;8.23;;;17.40;93.00;;;;;;5114945;27;20236;-63
2023/05/06 06:00:13;;;;;;;13.03;9.10;;;17.50;93.00;;;;;;5119077;27;20258;-63
2023/05/06 06:02:43;;;;;;;9.87;8.00;;;17.60;92.90;;;;;;5116669;27;20210;-63
2023/05/06 06:05:12;;;;;;;10.07;9.03;;;17.60;92.80;;;;;;5117373;27;20247;-63
2023/05/06 06:07:39;;;;;;;9.73;8.83;;;17.70;92.80;;;;;;5118770;27;20203;-63
2023/05/06 06:10:07;;;;;;;12.87;9.20;;;17.80;92.70;;;;;;5117234;27;20234;-63
2023/05/06 06:12:34;;;;;;;9.33;8.33;;;17.80;92.60;;;;;;5119552;27;20204;-63
2023/05/06 06:15:05;;;;;;;10.97;9.07;;;18.00;92.50;;;;;;5118386;27;20183;-63
2023/05/06 06:17:32;;;;;;;10.77;9.50;;;18.00;92.50;;;;;;5118129;27;20203;-63
2023/05/06 06:20:00;;;;;;;10.80;9.17;;;18.20;92.40;;;;;;5109575;27;20201;-64
2023/05/06 06:22:27;;;;;;;11.97;9.63;;;18.30;92.40;;;;;;5120262;27;20300;-63
2023/05/06 06:24:55;;;;;;;13.67;10.63;;;18.40;92.30;;;;;;5120911;27;20219;-63
2023/05/06 06:27:22;;;;;;;13.37;11.97;;;18.50;91.90;;;;;;5117320;27;20216;-63
2023/05/06 06:29:50;;;;;;;14.67;12.67;;;18.60;91.70;;;;;;5122432;27;20222;-63
2023/05/06 06:32:18;;;;;;;14.67;13.17;;;18.70;91.40;;;;;;5115108;27;20214;-63
2023/05/06 06:34:45;;;;;;;16.60;14.90;;;18.80;91.50;;;;;;5122919;27;20200;-63
2023/05/06 06:37:12;;;;;;;16.97;15.17;;;19.00;91.50;;;;;;5115936;27;20203;-63
2023/05/06 06:39:39;;;;;;;20.70;16.40;;;19.20;91.50;;;;;;5112852;27;20196;-63
2023/05/06 06:42:06;;;;;;;21.20;18.80;;;19.40;91.30;;;;;;5115857;27;20211;-63
2023/05/06 06:44:38;;;;;;;21.83;19.50;;;19.50;91.00;;;;;;5121284;27;20203;-63
2023/05/06 06:47:05;;;;;;;20.07;17.97;;;19.70;90.80;;;;;;5109911;27;20218;-63
2023/05/06 06:49:32;;;;;;;21.60;19.37;;;19.80;90.80;;;;;;5103074;27;20296;-63
2023/05/06 06:51:59;;;;;;;24.47;21.33;;;20.00;90.70;;;;;;5118011;27;20208;-63
2023/05/06 06:54:26;;;;;;;27.80;22.03;;;20.20;90.60;;;;;;5114835;27;20203;-63
2023/05/06 06:56:54;;;;;;;24.03;21.43;;;20.30;90.30;;;;;;5112305;27;20570;-63
2023/05/06 06:59:22;;;;;;;28.13;22.37;;;20.50;90.10;;;;;;5121217;27;20562;-64
2023/05/06 07:01:49;;;;;;;25.10;22.50;;;20.70;89.80;;;;;;5126656;27;20195;-63
2023/05/06 07:04:16;;;;;;;32.73;24.33;;;20.90;89.30;;;;;;5118485;27;20224;-63
2023/05/06 07:06:44;;;;;;;28.63;25.17;;;21.00;88.30;;;;;;5118652;27;20200;-63
2023/05/06 07:09:11;;;;;;;27.93;24.17;;;21.20;88.00;;;;;;5118576;27;20196;-63
2023/05/06 07:11:38;;;;;;;28.87;25.77;;;21.30;87.50;;;;;;5103201;27;20221;-63
2023/05/06 07:14:05;;;;;;;28.67;25.17;;;21.40;87.50;;;;;;5113156;27;20662;-63
2023/05/06 07:16:32;;;;;;;28.40;25.40;;;21.60;86.90;;;;;;5100095;28;20520;-63
2023/05/06 07:19:00;;;;;;;28.47;24.80;;;21.70;86.80;;;;;;5112014;27;20321;-63
2023/05/06 07:21:27;;;;;;;26.93;23.93;;;21.80;86.60;;;;;;5115704;27;20192;-63
2023/05/06 07:23:54;;;;;;;30.73;26.17;;;22.00;86.30;;;;;;5110248;28;20209;-63
2023/05/06 07:26:21;;;;;;;30.20;26.37;;;22.20;85.70;;;;;;5117058;27;20193;-63
2023/05/06 07:28:48;;;;;;;29.57;25.13;;;22.30;84.90;;;;;;5118146;27;20220;-63
2023/05/06 07:31:15;;;;;;;28.70;25.80;;;22.40;83.70;;;;;;5111958;28;20299;-63
2023/05/06 07:33:43;;;;;;;28.60;25.50;;;22.50;83.60;;;;;;5117496;28;20261;-63
2023/05/06 07:36:10;;;;;;;28.70;25.70;;;22.50;83.40;;;;;;5114510;28;20275;-63
2023/05/06 07:38:37;;;;;;;29.03;25.90;;;22.60;82.00;;;;;;5116267;28;20572;-63
2023/05/06 07:41:04;;;;;;;31.20;25.93;;;22.70;81.60;;;;;;5116353;28;20212;-63
2023/05/06 07:43:31;;;;;;;33.37;27.63;;;22.70;81.90;;;;;;5116536;28;20228;-63
2023/05/06 07:46:01;;;;;;;31.73;27.13;;;22.80;81.40;;;;;;5112596;28;20574;-63
2023/05/06 07:48:29;;;;;;;29.63;26.00;;;22.80;80.50;;;;;;5113541;28;20684;-63
2023/05/06 07:50:56;;;;;;;31.53;27.10;;;22.90;79.00;;;;;;5111548;28;20528;-63
2023/05/06 07:53:23;;;;;;;32.73;29.00;;;22.90;79.30;;;;;;5111508;28;20207;-63
2023/05/06 07:55:51;;;;;;;31.87;28.47;;;23.10;79.90;;;;;;5105952;28;20284;-63
2023/05/06 07:58:18;;;;;;;33.63;28.07;;;23.20;79.90;;;;;;5106835;28;20522;-63
2023/05/06 08:00:45;;;;;;;30.30;27.03;;;23.30;80.40;;;;;;5114222;28;20627;-63
2023/05/06 08:03:12;;;;;;;29.50;26.13;;;23.30;79.90;;;;;;5107302;28;20208;-63
2023/05/06 08:05:39;;;;;;;49.43;27.73;;;23.50;80.00;;;;;;5115477;27;20253;-63
2023/05/06 08:08:06;;;;;;;29.93;26.73;;;23.60;79.90;;;;;;5120490;28;20222;-63
2023/05/06 08:10:33;;;;;;;30.83;25.07;;;23.70;79.90;;;;;;5119945;28;20240;-63
2023/05/06 08:13:00;;;;;;;27.63;24.67;;;23.90;79.60;;;;;;5122368;27;20219;-63
2023/05/06 08:15:27;;;;;;;29.00;25.77;;;23.90;78.00;;;;;;5115167;27;20208;-63
2023/05/06 08:17:54;;;;;;;34.10;26.90;;;24.00;78.10;;;;;;5118038;27;20565;-63
2023/05/06 08:20:23;;;;;;;31.80;28.43;;;24.10;78.40;;;;;;5127256;27;20204;-63
2023/05/06 08:22:50;;;;;;;30.33;25.20;;;24.10;77.60;;;;;;5125944;27;20212;-63
2023/05/06 08:25:17;;;;;;;30.97;27.40;;;24.20;77.50;;;;;;5123220;27;20528;-63
2023/05/06 08:27:44;;;;;;;29.33;25.17;;;24.30;76.10;;;;;;5121412;27;20200;-63
2023/05/06 08:30:12;;;;;;;25.83;21.83;;;24.40;75.80;;;;;;5123936;27;20650;-63
2023/05/06 08:32:39;;;;;;;24.17;21.53;;;24.50;75.00;;;;;;5124582;27;20196;-63
2023/05/06 08:35:06;;;;;;;25.43;22.73;;;24.60;74.40;;;;;;5124575;27;20195;-63
2023/05/06 08:37:33;;;;;;;20.07;17.93;;;24.70;73.60;;;;;;5119437;27;20197;-63
2023/05/06 08:40:00;;;;;;;20.83;18.70;;;24.80;71.70;;;;;;5124238;27;20593;-63
2023/05/06 08:42:29;;;;;;;23.63;20.13;;;25.00;71.20;;;;;;5124413;27;20193;-63
2023/05/06 08:44:58;;;;;;;20.93;18.67;;;25.10;72.10;;;;;;5119224;27;20623;-63
2023/05/06 08:47:25;;;;;;;18.53;16.53;;;25.20;71.90;;;;;;5123759;27;20264;-63
2023/05/06 08:49:52;;;;;;;22.33;17.77;;;25.20;69.60;;;;;;5123292;27;20637;-63
2023/05/06 08:52:20;;;;;;;22.27;18.83;;;25.30;69.70;;;;;;5118311;27;20267;-63
2023/05/06 08:54:50;;;;;;;17.20;15.43;;;25.40;69.80;;;;;;5122059;27;20206;-63
2023/05/06 08:57:18;;;;;;;15.73;14.13;;;25.50;68.90;;;;;;5123052;27;20191;-63
2023/05/06 08:59:45;;;;;;;15.47;13.70;;;25.60;67.20;;;;;;5123060;27;20221;-63
2023/05/06 09:02:12;;;;;;;14.97;13.37;;;25.60;66.30;;;;;;5125241;27;20206;-63
2023/05/06 09:04:39;;;;;;;17.80;14.00;;;25.60;64.30;;;;;;5116650;27;20202;-63
2023/05/06 09:07:07;;;;;;;14.00;12.60;;;25.60;64.40;;;;;;5115841;27;20264;-63
2023/05/06 09:09:34;;;;;;;15.70;12.17;;;25.70;64.10;;;;;;5122142;27;20255;-63
2023/05/06 09:12:01;;;;;;;15.43;13.90;;;25.70;64.00;;;;;;5124180;27;20642;-63
2023/05/06 09:14:28;;;;;;;13.97;12.23;;;25.80;63.10;;;;;;5120481;27;20195;-63
2023/05/06 09:16:55;;;;;;;15.20;13.70;;;25.90;63.70;;;;;;5122511;27;20323;-63
2023/05/06 09:19:24;;;;;;;15.00;13.40;;;26.00;63.40;;;;;;5118786;27;20199;-63
2023/05/06 09:21:51;;;;;;;15.20;13.80;;;26.10;63.60;;;;;;5118680;27;20201;-63
2023/05/06 09:24:19;;;;;;;22.33;15.07;;;26.30;65.00;;;;;;5118905;27;20214;-64
2023/05/06 09:26:46;;;;;;;18.97;13.10;;;26.40;65.20;;;;;;5117385;27;20201;-63
2023/05/06 09:29:13;;;;;;;10.73;9.63;;;26.60;65.30;;;;;;5114988;27;20283;-64
2023/05/06 09:31:45;;;;;;;10.67;9.00;;;26.80;64.30;;;;;;5116373;27;20215;-63
2023/05/06 09:34:13;;;;;;;10.20;8.53;;;27.00;64.40;;;;;;5112253;27;20254;-63
2023/05/06 09:36:41;;;;;;;10.20;8.53;;;27.10;58.00;;;;;;5116208;27;20192;-63
2023/05/06 09:39:08;;;;;;;11.53;9.10;;;27.10;59.80;;;;;;5112202;27;20196;-63
2023/05/06 09:41:36;;;;;;;9.60;8.30;;;27.20;59.60;;;;;;5116389;27;20207;-63
2023/05/06 09:44:03;;;;;;;9.93;9.03;;;27.20;59.80;;;;;;5116723;27;20204;-63
2023/05/06 09:46:31;;;;;;;10.63;9.47;;;27.40;60.60;;;;;;5113939;27;20611;-64
2023/05/06 09:48:59;;;;;;;11.30;8.37;;;27.50;58.40;;;;;;5120297;27;20200;-63
2023/05/06 09:51:27;;;;;;;9.20;8.20;;;27.50;58.90;;;;;;5123950;27;20204;-63
2023/05/06 09:53:56;;;;;;;10.53;9.43;;;27.50;57.70;;;;;;5120632;27;20283;-63
2023/05/06 09:56:24;;;;;;;11.00;9.90;;;27.50;57.60;;;;;;5120631;27;20195;-64
2023/05/06 09:58:54;;;;;;;11.07;8.87;;;27.60;57.70;;;;;;5120375;27;20189;-64
2023/05/06 10:01:22;;;;;;;13.20;8.87;;;27.60;57.50;;;;;;5116108;27;20611;-64
2023/05/06 10:04:08;;;;;;;32.27;25.13;;;27.70;59.00;;;;;;5113986;27;20234;-64
2023/05/06 10:06:38;;;;;;;13.23;12.03;;;27.80;59.30;;;;;;5115248;27;20208;-64
2023/05/06 10:09:07;;;;;;;23.33;19.33;;;28.00;58.60;;;;;;5112227;27;20203;-64
2023/05/06 10:11:35;;;;;;;46.20;41.70;;;28.00;57.80;;;;;;5110282;27;20641;-64
2023/05/06 10:14:03;;;;;;;49.73;36.83;;;28.10;58.40;;;;;;5112060;27;20659;-63
2023/05/06 10:16:32;;;;;;;26.67;24.23;;;28.10;58.40;;;;;;5111774;27;20188;-63
2023/05/06 10:19:02;;;;;;;14.20;12.77;;;28.20;59.60;;;;;;5112510;27;20193;-63
2023/05/06 10:21:33;;;;;;;10.97;9.87;;;28.30;59.20;;;;;;5114747;27;20192;-63
2023/05/06 10:24:08;;;;;;;11.27;10.17;;;28.30;56.80;;;;;;5123329;27;20208;-63
2023/05/06 10:26:36;;;;;;;14.40;9.87;;;28.30;57.20;;;;;;5119743;27;20184;-63
2023/05/06 10:29:08;;;;;;;9.90;9.00;;;28.40;57.40;;;;;;5122500;27;20231;-63
2023/05/06 10:31:42;;;;;;;114.47;105.37;;;28.40;55.80;;;;;;5118481;27;20208;-64
2023/05/06 10:34:09;;;;;;;12.13;11.03;;;28.50;55.00;;;;;;5115269;27;20201;-63
2023/05/06 10:36:39;;;;;;;10.73;9.67;;;28.50;56.20;;;;;;5117853;27;20204;-63
2023/05/06 10:39:09;;;;;;;54.83;47.10;;;28.50;56.90;;;;;;5116307;27;20630;-64
2023/05/06 10:41:36;;;;;;;23.03;17.77;;;28.50;56.60;;;;;;5112354;27;20638;-63
2023/05/06 10:44:04;;;;;;;10.33;9.13;;;28.60;56.70;;;;;;5114094;27;20210;-63
2023/05/06 10:46:51;;;;;;;1120.33;837.70;;;28.70;56.70;;;;;;5110706;27;20239;-64
2023/05/06 10:49:19;;;;;;;15.20;13.70;;;28.70;56.40;;;;;;5107555;27;20197;-63
2023/05/06 10:52:12;;;;;;;10.53;9.07;;;28.80;54.50;;;;;;5110279;27;20213;-63
2023/05/06 10:54:50;;;;;;;615.87;256.23;;;28.80;52.90;;;;;;5109676;27;20192;-63
2023/05/06 10:57:17;;;;;;;90.73;61.67;;;28.70;53.00;;;;;;5118645;27;20222;-63
2023/05/06 10:59:45;;;;;;;15.40;10.17;;;28.70;52.10;;;;;;5120270;27;20196;-63
2023/05/06 11:02:15;;;;;;;10.77;9.20;;;28.60;53.30;;;;;;5118124;27;20205;-64
2023/05/06 11:04:49;;;;;;;146.87;126.03;;;28.60;52.80;;;;;;5123260;27;20203;-64
2023/05/06 11:07:23;;;;;;;81.73;70.30;;;28.50;50.40;;;;;;5117718;27;20208;-63
2023/05/06 11:10:01;;;;;;;9.93;8.43;;;28.40;51.60;;;;;;5123093;27;20261;-63
2023/05/06 11:12:57;;;;;;;66.63;56.83;;;28.40;52.90;;;;;;5121103;27;20204;-63
2023/05/06 11:15:38;;;;;;;7.33;6.30;;;28.50;52.20;;;;;;5110441;27;20200;-63
2023/05/06 11:18:26;;;;;;;7.93;6.10;;;28.60;54.50;;;;;;5117964;27;20188;-63
2023/05/06 11:20:59;;;;;;;8.50;6.43;;;28.60;51.70;;;;;;5122879;27;20626;-63
2023/05/06 11:23:42;;;;;;;7.73;6.90;;;28.50;50.20;;;;;;5122757;27;20211;-63
2023/05/06 11:26:10;;;;;;;7.50;5.60;;;28.50;50.30;;;;;;5117265;27;20203;-63
2023/05/06 11:28:38;;;;;;;638.60;482.90;;;28.50;50.50;;;;;;5119256;27;20220;-64
2023/05/06 11:31:06;;;;;;;23.37;19.03;;;28.50;51.00;;;;;;5116780;27;20220;-63
2023/05/06 11:33:35;;;;;;;34.00;29.60;;;28.50;51.00;;;;;;5118138;27;20196;-63
2023/05/06 11:36:03;;;;;;;51.80;44.53;;;28.50;49.70;;;;;;5115630;28;20204;-63
2023/05/06 11:38:44;;;;;;;87.87;69.77;;;28.50;51.20;;;;;;5120578;28;20196;-63
2023/05/06 11:41:11;;;;;;;213.23;166.53;;;28.60;51.50;;;;;;5114653;28;20200;-63
2023/05/06 11:43:39;;;;;;;271.30;234.13;;;28.70;51.40;;;;;;5115875;27;20234;-64
2023/05/06 11:46:06;;;;;;;202.63;162.23;;;28.80;52.20;;;;;;5109727;28;20239;-63
2023/05/06 11:48:33;;;;;;;370.87;265.47;;;28.90;52.50;;;;;;5119617;27;20203;-64
2023/05/06 11:51:00;;;;;;;381.37;245.90;;;29.00;52.70;;;;;;5119701;27;20248;-64
2023/05/06 11:53:28;;;;;;;24.17;19.17;;;29.20;52.70;;;;;;5119766;27;20184;-64
2023/05/06 11:55:55;;;;;;;580.50;382.87;;;29.30;51.30;;;;;;5121859;27;20249;-63
2023/05/06 11:58:27;;;;;;;10.17;9.00;;;29.30;49.80;;;;;;5117413;27;20206;-63
2023/05/06 12:00:56;;;;;;;9.43;8.53;;;29.30;50.90;;;;;;5122318;27;20204;-64
2023/05/06 12:03:24;;;;;;;8.77;7.97;;;29.20;50.30;;;;;;5117230;27;20275;-64
2023/05/06 12:05:52;;;;;;;9.37;7.13;;;29.10;50.70;;;;;;5121378;27;20200;-64
2023/05/06 12:08:40;;;;;;;7.90;6.80;;;29.00;51.40;;;;;;5124669;27;20287;-64
2023/05/06 12:11:07;;;;;;;464.57;314.10;;;28.80;51.40;;;;;;5123137;27;20216;-64
2023/05/06 12:13:36;;;;;;;342.67;216.90;;;28.80;52.30;;;;;;5121773;27;20206;-64
2023/05/06 12:16:06;;;;;;;662.50;415.83;;;28.80;53.30;;;;;;5120416;27;20688;-64
2023/05/06 12:18:33;;;;;;;124.67;85.43;;;28.90;54.10;;;;;;5121852;27;20489;-64
2023/05/06 12:21:06;;;;;;;187.43;143.73;;;29.00;52.40;;;;;;5116489;27;20228;-64
2023/05/06 12:23:33;;;;;;;10.53;9.57;;;29.10;52.10;;;;;;5119028;27;20212;-64
2023/05/06 12:26:02;;;;;;;37.47;28.83;;;29.20;51.80;;;;;;5115979;27;20215;-64
2023/05/06 12:28:31;;;;;;;12.10;10.80;;;29.20;53.80;;;;;;5116269;27;20228;-64
2023/05/06 12:30:58;;;;;;;9.03;8.23;;;29.20;53.10;;;;;;5117998;27;20223;-64
2023/05/06 12:33:25;;;;;;;26.53;19.73;;;29.30;51.10;;;;;;5118946;27;20195;-64
2023/05/06 12:35:55;;;;;;;19.17;14.47;;;29.20;50.80;;;;;;5112409;27;20627;-64